sensor_id;sensor_type;location;lat;lon;timestamp;temperature;humidity
13123;DHT22;6627;50.920;12.050;2022-09-09T00:00:48;12.60;99.90
13123;DHT22;6627;50.920;12.050;2022-09-09T00:03:25;12.60;99.90
13123;DHT22;6627;50.920;12.050;2022-09-09T00:06:01;12.60;99.90
13123;DHT22;6627;50.920;12.050;2022-09-09T00:08:41;12.80;99.90
13123;DHT22;6627;50.920;12.050;2022-09-09T00:11:25;12.70;99.90
13123;DHT22;6627;50.920;12.050;2022-09-09T00:14:00;12.70;99.90
13123;DHT22;6627;50.920;12.050;2022-09-09T00:16:40;12.90;99.90
13123;DHT22;6627;50.920;12.050;2022-09-09T00:19:21;12.90;99.90
13123;DHT22;6627;50.920;12.050;2022-09-09T00:22:04;12.90;99.90
13123;DHT22;6627;50.920;12.050;2022-09-09T00:24:45;13.20;99.90
13123;DHT22;6627;50.920;12.050;2022-09-09T00:27:25;13.20;99.90
13123;DHT22;6627;50.920;12.050;2022-09-09T00:30:12;13.20;99.90
13123;DHT22;6627;50.920;12.050;2022-09-09T00:32:45;13.30;99.90
13123;DHT22;6627;50.920;12.050;2022-09-09T00:35:18;13.30;99.90
13123;DHT22;6627;50.920;12.050;2022-09-09T00:37:53;13.30;99.90
13123;DHT22;6627;50.920;12.050;2022-09-09T00:40:33;13.30;99.90
13123;DHT22;6627;50.920;12.050;2022-09-09T00:43:16;13.40;99.90
13123;DHT22;6627;50.920;12.050;2022-09-09T00:46:10;13.30;99.90
13123;DHT22;6627;50.920;12.050;2022-09-09T00:49:02;13.30;99.90
13123;DHT22;6627;50.920;12.050;2022-09-09T00:51:46;13.40;99.90
13123;DHT22;6627;50.920;12.050;2022-09-09T00:54:32;13.30;99.90
13123;DHT22;6627;50.920;12.050;2022-09-09T00:57:24;13.10;99.90
13123;DHT22;6627;50.920;12.050;2022-09-09T01:00:15;13.00;99.90
13123;DHT22;6627;50.920;12.050;2022-09-09T01:02:53;13.20;99.90
13123;DHT22;6627;50.920;12.050;2022-09-09T01:05:36;13.30;99.90
13123;DHT22;6627;50.920;12.050;2022-09-09T01:08:25;13.30;99.90
13123;DHT22;6627;50.920;12.050;2022-09-09T01:11:09;13.30;99.90
13123;DHT22;6627;50.920;12.050;2022-09-09T01:13:45;13.20;99.90
13123;DHT22;6627;50.920;12.050;2022-09-09T01:16:20;13.00;99.90
13123;DHT22;6627;50.920;12.050;2022-09-09T01:18:52;12.90;99.90
13123;DHT22;6627;50.920;12.050;2022-09-09T01:21:30;12.90;99.90
13123;DHT22;6627;50.920;12.050;2022-09-09T01:24:22;13.10;99.90
13123;DHT22;6627;50.920;12.050;2022-09-09T01:26:58;13.20;99.90
13123;DHT22;6627;50.920;12.050;2022-09-09T01:29:28;13.30;99.90
13123;DHT22;6627;50.920;12.050;2022-09-09T01:32:37;13.30;99.90
13123;DHT22;6627;50.920;12.050;2022-09-09T01:35:13;13.40;99.90
13123;DHT22;6627;50.920;12.050;2022-09-09T01:37:50;13.40;99.90
13123;DHT22;6627;50.920;12.050;2022-09-09T01:40:20;13.20;99.90
13123;DHT22;6627;50.920;12.050;2022-09-09T01:42:50;13.10;99.90
13123;DHT22;6627;50.920;12.050;2022-09-09T01:45:20;13.10;99.90
13123;DHT22;6627;50.920;12.050;2022-09-09T01:47:52;12.90;99.90
13123;DHT22;6627;50.920;12.050;2022-09-09T01:50:20;12.90;99.90
13123;DHT22;6627;50.920;12.050;2022-09-09T01:52:56;13.00;99.90
13123;DHT22;6627;50.920;12.050;2022-09-09T01:55:30;12.90;99.90
13123;DHT22;6627;50.920;12.050;2022-09-09T01:58:14;12.90;99.90
13123;DHT22;6627;50.920;12.050;2022-09-09T02:01:02;12.90;99.90
13123;DHT22;6627;50.920;12.050;2022-09-09T02:03:36;12.80;99.90
13123;DHT22;6627;50.920;12.050;2022-09-09T02:06:13;12.90;99.90
13123;DHT22;6627;50.920;12.050;2022-09-09T02:08:48;12.90;99.90
13123;DHT22;6627;50.920;12.050;2022-09-09T02:11:18;12.80;99.90
13123;DHT22;6627;50.920;12.050;2022-09-09T02:13:53;12.80;99.90
13123;DHT22;6627;50.920;12.050;2022-09-09T02:16:26;12.80;99.90
13123;DHT22;6627;50.920;12.050;2022-09-09T02:19:01;12.60;99.90
13123;DHT22;6627;50.920;12.050;2022-09-09T02:21:33;12.50;99.90
13123;DHT22;6627;50.920;12.050;2022-09-09T02:24:05;12.60;99.90
13123;DHT22;6627;50.920;12.050;2022-09-09T02:26:39;12.50;99.90
13123;DHT22;6627;50.920;12.050;2022-09-09T02:29:12;12.50;99.90
13123;DHT22;6627;50.920;12.050;2022-09-09T02:31:45;12.50;99.90
13123;DHT22;6627;50.920;12.050;2022-09-09T02:34:19;12.50;99.90
13123;DHT22;6627;50.920;12.050;2022-09-09T02:36:51;12.60;99.90
13123;DHT22;6627;50.920;12.050;2022-09-09T02:39:22;12.50;99.90
13123;DHT22;6627;50.920;12.050;2022-09-09T02:41:49;12.50;99.90
13123;DHT22;6627;50.920;12.050;2022-09-09T02:44:19;12.60;99.90
13123;DHT22;6627;50.920;12.050;2022-09-09T02:47:00;12.70;99.90
13123;DHT22;6627;50.920;12.050;2022-09-09T02:49:47;12.70;99.90
13123;DHT22;6627;50.920;12.050;2022-09-09T02:52:30;12.90;99.90
13123;DHT22;6627;50.920;12.050;2022-09-09T02:55:14;12.80;99.90
13123;DHT22;6627;50.920;12.050;2022-09-09T02:57:51;12.90;99.90
13123;DHT22;6627;50.920;12.050;2022-09-09T03:00:26;12.70;99.90
13123;DHT22;6627;50.920;12.050;2022-09-09T03:02:55;12.60;99.90
13123;DHT22;6627;50.920;12.050;2022-09-09T03:05:24;12.70;99.90
13123;DHT22;6627;50.920;12.050;2022-09-09T03:07:53;12.70;99.90
13123;DHT22;6627;50.920;12.050;2022-09-09T03:10:21;12.80;99.90
13123;DHT22;6627;50.920;12.050;2022-09-09T03:12:49;12.70;99.90
13123;DHT22;6627;50.920;12.050;2022-09-09T03:15:17;12.70;99.90
13123;DHT22;6627;50.920;12.050;2022-09-09T03:17:46;12.60;99.90
13123;DHT22;6627;50.920;12.050;2022-09-09T03:20:18;12.70;99.90
13123;DHT22;6627;50.920;12.050;2022-09-09T03:22:46;12.90;99.90
13123;DHT22;6627;50.920;12.050;2022-09-09T03:25:14;13.00;99.90
13123;DHT22;6627;50.920;12.050;2022-09-09T03:27:42;12.90;99.90
13123;DHT22;6627;50.920;12.050;2022-09-09T03:30:10;12.60;99.90
13123;DHT22;6627;50.920;12.050;2022-09-09T03:32:38;12.70;99.90
13123;DHT22;6627;50.920;12.050;2022-09-09T03:35:08;12.70;99.90
13123;DHT22;6627;50.920;12.050;2022-09-09T03:37:36;12.70;99.90
13123;DHT22;6627;50.920;12.050;2022-09-09T03:40:05;12.60;99.90
13123;DHT22;6627;50.920;12.050;2022-09-09T03:42:34;12.50;99.90
13123;DHT22;6627;50.920;12.050;2022-09-09T03:45:09;12.40;99.90
13123;DHT22;6627;50.920;12.050;2022-09-09T03:47:38;12.40;99.90
13123;DHT22;6627;50.920;12.050;2022-09-09T03:50:09;12.30;99.90
13123;DHT22;6627;50.920;12.050;2022-09-09T03:52:37;12.30;99.90
13123;DHT22;6627;50.920;12.050;2022-09-09T03:55:07;12.40;99.90
13123;DHT22;6627;50.920;12.050;2022-09-09T03:57:35;12.40;99.90
13123;DHT22;6627;50.920;12.050;2022-09-09T04:00:08;12.40;99.90
13123;DHT22;6627;50.920;12.050;2022-09-09T04:02:55;12.60;99.90
13123;DHT22;6627;50.920;12.050;2022-09-09T04:05:25;12.60;99.90
13123;DHT22;6627;50.920;12.050;2022-09-09T04:07:53;12.70;99.90
13123;DHT22;6627;50.920;12.050;2022-09-09T04:10:20;12.70;99.90
13123;DHT22;6627;50.920;12.050;2022-09-09T04:12:49;12.60;99.90
13123;DHT22;6627;50.920;12.050;2022-09-09T04:15:17;12.50;99.90
13123;DHT22;6627;50.920;12.050;2022-09-09T04:17:46;12.70;99.90
13123;DHT22;6627;50.920;12.050;2022-09-09T04:20:14;12.60;99.90
13123;DHT22;6627;50.920;12.050;2022-09-09T04:22:43;12.60;99.90
13123;DHT22;6627;50.920;12.050;2022-09-09T04:25:11;12.70;99.90
13123;DHT22;6627;50.920;12.050;2022-09-09T04:27:38;12.60;99.90
13123;DHT22;6627;50.920;12.050;2022-09-09T04:30:08;12.70;99.90
13123;DHT22;6627;50.920;12.050;2022-09-09T04:32:37;12.70;99.90
13123;DHT22;6627;50.920;12.050;2022-09-09T04:35:08;12.90;99.90
13123;DHT22;6627;50.920;12.050;2022-09-09T04:37:37;13.00;99.90
13123;DHT22;6627;50.920;12.050;2022-09-09T04:40:09;13.00;99.90
13123;DHT22;6627;50.920;12.050;2022-09-09T04:42:39;13.00;99.90
13123;DHT22;6627;50.920;12.050;2022-09-09T04:45:24;13.00;99.90
13123;DHT22;6627;50.920;12.050;2022-09-09T04:47:55;13.00;99.90
13123;DHT22;6627;50.920;12.050;2022-09-09T04:50:42;13.10;99.90
13123;DHT22;6627;50.920;12.050;2022-09-09T04:53:13;13.30;99.90
13123;DHT22;6627;50.920;12.050;2022-09-09T04:55:46;13.30;99.90
13123;DHT22;6627;50.920;12.050;2022-09-09T04:58:30;13.30;99.90
13123;DHT22;6627;50.920;12.050;2022-09-09T05:01:05;13.30;99.90
13123;DHT22;6627;50.920;12.050;2022-09-09T05:03:34;13.30;99.90
13123;DHT22;6627;50.920;12.050;2022-09-09T05:06:06;13.30;99.90
13123;DHT22;6627;50.920;12.050;2022-09-09T05:08:36;13.40;99.90
13123;DHT22;6627;50.920;12.050;2022-09-09T05:11:13;13.40;99.90
13123;DHT22;6627;50.920;12.050;2022-09-09T05:13:41;13.50;99.90
13123;DHT22;6627;50.920;12.050;2022-09-09T05:16:08;13.50;99.90
13123;DHT22;6627;50.920;12.050;2022-09-09T05:18:46;13.60;99.90
13123;DHT22;6627;50.920;12.050;2022-09-09T05:21:25;13.60;99.90
13123;DHT22;6627;50.920;12.050;2022-09-09T05:24:13;13.60;99.90
13123;DHT22;6627;50.920;12.050;2022-09-09T05:26:50;13.60;99.90
13123;DHT22;6627;50.920;12.050;2022-09-09T05:29:37;13.60;99.90
13123;DHT22;6627;50.920;12.050;2022-09-09T05:32:07;13.60;99.90
13123;DHT22;6627;50.920;12.050;2022-09-09T05:34:36;13.70;99.90
13123;DHT22;6627;50.920;12.050;2022-09-09T05:37:05;13.70;99.90
13123;DHT22;6627;50.920;12.050;2022-09-09T05:39:37;13.70;99.90
13123;DHT22;6627;50.920;12.050;2022-09-09T05:42:16;13.70;99.90
13123;DHT22;6627;50.920;12.050;2022-09-09T05:44:44;13.80;99.90
13123;DHT22;6627;50.920;12.050;2022-09-09T05:47:30;13.80;99.90
13123;DHT22;6627;50.920;12.050;2022-09-09T05:49:58;13.90;99.90
13123;DHT22;6627;50.920;12.050;2022-09-09T05:52:25;13.90;99.90
13123;DHT22;6627;50.920;12.050;2022-09-09T05:54:53;13.90;99.90
13123;DHT22;6627;50.920;12.050;2022-09-09T05:57:41;13.90;99.90
13123;DHT22;6627;50.920;12.050;2022-09-09T06:00:28;14.00;99.90
13123;DHT22;6627;50.920;12.050;2022-09-09T06:03:03;14.00;99.90
13123;DHT22;6627;50.920;12.050;2022-09-09T06:05:57;14.10;99.90
13123;DHT22;6627;50.920;12.050;2022-09-09T06:08:45;14.20;99.90
13123;DHT22;6627;50.920;12.050;2022-09-09T06:11:32;14.20;99.90
13123;DHT22;6627;50.920;12.050;2022-09-09T06:14:08;14.30;99.90
13123;DHT22;6627;50.920;12.050;2022-09-09T06:16:56;14.30;99.90
13123;DHT22;6627;50.920;12.050;2022-09-09T06:19:42;14.40;99.90
13123;DHT22;6627;50.920;12.050;2022-09-09T06:22:29;14.40;99.90
13123;DHT22;6627;50.920;12.050;2022-09-09T06:24:58;14.50;99.90
13123;DHT22;6627;50.920;12.050;2022-09-09T06:27:35;14.50;99.90
13123;DHT22;6627;50.920;12.050;2022-09-09T06:30:04;14.60;99.90
13123;DHT22;6627;50.920;12.050;2022-09-09T06:32:34;14.60;99.90
13123;DHT22;6627;50.920;12.050;2022-09-09T06:35:04;14.60;99.90
13123;DHT22;6627;50.920;12.050;2022-09-09T06:37:32;14.70;99.90
13123;DHT22;6627;50.920;12.050;2022-09-09T06:40:02;14.80;99.90
13123;DHT22;6627;50.920;12.050;2022-09-09T06:42:30;14.80;99.90
13123;DHT22;6627;50.920;12.050;2022-09-09T06:45:18;14.80;99.90
13123;DHT22;6627;50.920;12.050;2022-09-09T06:48:05;14.90;99.90
13123;DHT22;6627;50.920;12.050;2022-09-09T06:51:00;14.90;99.90
13123;DHT22;6627;50.920;12.050;2022-09-09T06:53:51;14.90;99.90
13123;DHT22;6627;50.920;12.050;2022-09-09T06:56:40;15.00;99.90
13123;DHT22;6627;50.920;12.050;2022-09-09T06:59:28;15.00;99.90
13123;DHT22;6627;50.920;12.050;2022-09-09T07:01:58;15.10;99.90
13123;DHT22;6627;50.920;12.050;2022-09-09T07:04:25;15.10;99.90
13123;DHT22;6627;50.920;12.050;2022-09-09T07:06:52;15.20;99.90
13123;DHT22;6627;50.920;12.050;2022-09-09T07:09:39;15.30;99.90
13123;DHT22;6627;50.920;12.050;2022-09-09T07:12:09;15.40;99.90
13123;DHT22;6627;50.920;12.050;2022-09-09T07:14:55;15.50;99.90
13123;DHT22;6627;50.920;12.050;2022-09-09T07:17:27;15.60;99.90
13123;DHT22;6627;50.920;12.050;2022-09-09T07:20:14;15.80;99.90
13123;DHT22;6627;50.920;12.050;2022-09-09T07:22:44;15.90;99.90
13123;DHT22;6627;50.920;12.050;2022-09-09T07:25:12;16.00;99.90
13123;DHT22;6627;50.920;12.050;2022-09-09T07:27:40;16.10;99.90
13123;DHT22;6627;50.920;12.050;2022-09-09T07:30:08;16.10;99.90
13123;DHT22;6627;50.920;12.050;2022-09-09T07:32:39;16.20;99.90
13123;DHT22;6627;50.920;12.050;2022-09-09T07:35:12;16.30;99.90
13123;DHT22;6627;50.920;12.050;2022-09-09T07:37:40;16.30;99.90
13123;DHT22;6627;50.920;12.050;2022-09-09T07:40:11;16.40;99.90
13123;DHT22;6627;50.920;12.050;2022-09-09T07:42:58;16.40;99.90
13123;DHT22;6627;50.920;12.050;2022-09-09T07:45:27;16.40;99.90
13123;DHT22;6627;50.920;12.050;2022-09-09T07:47:57;16.50;99.90
13123;DHT22;6627;50.920;12.050;2022-09-09T07:50:31;16.60;99.90
13123;DHT22;6627;50.920;12.050;2022-09-09T07:52:58;16.70;99.90
13123;DHT22;6627;50.920;12.050;2022-09-09T07:55:26;16.70;99.90
13123;DHT22;6627;50.920;12.050;2022-09-09T07:57:55;16.80;99.90
13123;DHT22;6627;50.920;12.050;2022-09-09T08:00:24;16.80;99.90
13123;DHT22;6627;50.920;12.050;2022-09-09T08:02:53;16.90;99.90
13123;DHT22;6627;50.920;12.050;2022-09-09T08:05:23;17.00;99.90
13123;DHT22;6627;50.920;12.050;2022-09-09T08:08:10;17.10;99.90
13123;DHT22;6627;50.920;12.050;2022-09-09T08:10:38;17.20;99.90
13123;DHT22;6627;50.920;12.050;2022-09-09T08:13:12;17.30;99.90
13123;DHT22;6627;50.920;12.050;2022-09-09T08:15:39;17.30;99.90
13123;DHT22;6627;50.920;12.050;2022-09-09T08:18:09;17.40;99.90
13123;DHT22;6627;50.920;12.050;2022-09-09T08:20:38;17.40;99.90
13123;DHT22;6627;50.920;12.050;2022-09-09T08:23:06;17.50;99.90
13123;DHT22;6627;50.920;12.050;2022-09-09T08:25:40;17.60;99.90
13123;DHT22;6627;50.920;12.050;2022-09-09T08:28:09;17.60;99.90
13123;DHT22;6627;50.920;12.050;2022-09-09T08:30:41;17.70;99.90
13123;DHT22;6627;50.920;12.050;2022-09-09T08:33:09;17.80;99.90
13123;DHT22;6627;50.920;12.050;2022-09-09T08:35:38;17.90;99.90
13123;DHT22;6627;50.920;12.050;2022-09-09T08:38:06;17.90;99.90
13123;DHT22;6627;50.920;12.050;2022-09-09T08:40:37;18.00;99.90
13123;DHT22;6627;50.920;12.050;2022-09-09T08:43:20;18.00;99.90
13123;DHT22;6627;50.920;12.050;2022-09-09T08:46:05;18.20;99.90
13123;DHT22;6627;50.920;12.050;2022-09-09T08:48:50;18.30;99.90
13123;DHT22;6627;50.920;12.050;2022-09-09T08:51:44;18.40;99.90
13123;DHT22;6627;50.920;12.050;2022-09-09T09:01:55;19.10;99.90
13123;DHT22;6627;50.920;12.050;2022-09-09T09:04:52;19.20;99.90
13123;DHT22;6627;50.920;12.050;2022-09-09T09:07:41;19.30;99.90
13123;DHT22;6627;50.920;12.050;2022-09-09T09:10:33;19.50;99.90
13123;DHT22;6627;50.920;12.050;2022-09-09T09:13:15;19.70;99.90
13123;DHT22;6627;50.920;12.050;2022-09-09T09:15:50;19.80;99.90
13123;DHT22;6627;50.920;12.050;2022-09-09T09:18:23;19.80;99.90
13123;DHT22;6627;50.920;12.050;2022-09-09T09:21:00;19.80;99.90
13123;DHT22;6627;50.920;12.050;2022-09-09T09:23:40;19.90;99.90
13123;DHT22;6627;50.920;12.050;2022-09-09T09:26:13;20.10;99.90
13123;DHT22;6627;50.920;12.050;2022-09-09T09:28:42;20.30;99.90
13123;DHT22;6627;50.920;12.050;2022-09-09T09:31:14;20.40;99.90
13123;DHT22;6627;50.920;12.050;2022-09-09T20:12:49;17.00;99.90
13123;DHT22;6627;50.920;12.050;2022-09-09T20:15:19;16.90;99.90
13123;DHT22;6627;50.920;12.050;2022-09-09T20:17:52;16.70;1.00
13123;DHT22;6627;50.920;12.050;2022-09-09T20:20:20;16.70;1.00
13123;DHT22;6627;50.920;12.050;2022-09-09T20:22:49;16.60;1.00
13123;DHT22;6627;50.920;12.050;2022-09-09T20:25:16;16.50;1.00
13123;DHT22;6627;50.920;12.050;2022-09-09T20:27:49;16.50;1.00
13123;DHT22;6627;50.920;12.050;2022-09-09T20:30:17;16.60;1.00
13123;DHT22;6627;50.920;12.050;2022-09-09T20:33:04;16.70;1.00
13123;DHT22;6627;50.920;12.050;2022-09-09T20:35:31;16.40;1.00
13123;DHT22;6627;50.920;12.050;2022-09-09T20:38:15;16.00;1.00
13123;DHT22;6627;50.920;12.050;2022-09-09T20:40:49;16.00;1.00
13123;DHT22;6627;50.920;12.050;2022-09-09T20:43:17;15.70;21.70
13123;DHT22;6627;50.920;12.050;2022-09-09T20:45:44;15.50;99.90
13123;DHT22;6627;50.920;12.050;2022-09-09T20:48:11;15.40;99.90
13123;DHT22;6627;50.920;12.050;2022-09-09T20:50:39;15.20;99.90
13123;DHT22;6627;50.920;12.050;2022-09-09T20:53:07;15.40;99.90
13123;DHT22;6627;50.920;12.050;2022-09-09T20:55:44;15.30;99.90
13123;DHT22;6627;50.920;12.050;2022-09-09T20:58:24;15.30;99.90
13123;DHT22;6627;50.920;12.050;2022-09-09T21:00:54;15.40;99.90
13123;DHT22;6627;50.920;12.050;2022-09-09T21:03:29;15.60;99.90
13123;DHT22;6627;50.920;12.050;2022-09-09T21:06:00;15.40;99.90
13123;DHT22;6627;50.920;12.050;2022-09-09T21:08:27;15.50;99.90
13123;DHT22;6627;50.920;12.050;2022-09-09T21:10:56;15.60;99.90
13123;DHT22;6627;50.920;12.050;2022-09-09T21:13:25;15.70;99.90
13123;DHT22;6627;50.920;12.050;2022-09-09T21:15:54;15.60;99.90
13123;DHT22;6627;50.920;12.050;2022-09-09T21:18:41;15.70;99.90
13123;DHT22;6627;50.920;12.050;2022-09-09T21:21:28;15.70;99.90
13123;DHT22;6627;50.920;12.050;2022-09-09T21:24:16;15.50;99.90
13123;DHT22;6627;50.920;12.050;2022-09-09T21:27:04;15.40;99.90
13123;DHT22;6627;50.920;12.050;2022-09-09T21:29:51;15.40;99.90
13123;DHT22;6627;50.920;12.050;2022-09-09T21:32:19;15.60;99.90
13123;DHT22;6627;50.920;12.050;2022-09-09T21:35:07;15.50;99.90
13123;DHT22;6627;50.920;12.050;2022-09-09T21:37:50;15.20;99.90
13123;DHT22;6627;50.920;12.050;2022-09-09T21:40:38;15.10;99.90
13123;DHT22;6627;50.920;12.050;2022-09-09T21:43:09;15.00;99.90
13123;DHT22;6627;50.920;12.050;2022-09-09T21:48:11;14.90;99.90
13123;DHT22;6627;50.920;12.050;2022-09-09T21:50:42;14.80;99.90
13123;DHT22;6627;50.920;12.050;2022-09-09T21:53:13;14.70;99.90
13123;DHT22;6627;50.920;12.050;2022-09-09T21:55:47;14.50;99.90
13123;DHT22;6627;50.920;12.050;2022-09-09T21:58:16;14.40;99.90
13123;DHT22;6627;50.920;12.050;2022-09-09T22:00:45;14.40;99.90
13123;DHT22;6627;50.920;12.050;2022-09-09T22:03:14;14.40;99.90
13123;DHT22;6627;50.920;12.050;2022-09-09T22:05:44;14.40;99.90
13123;DHT22;6627;50.920;12.050;2022-09-09T22:08:13;14.30;99.90
13123;DHT22;6627;50.920;12.050;2022-09-09T22:10:44;14.10;99.90
13123;DHT22;6627;50.920;12.050;2022-09-09T22:13:13;13.90;99.90
13123;DHT22;6627;50.920;12.050;2022-09-09T22:15:44;14.00;99.90
13123;DHT22;6627;50.920;12.050;2022-09-09T22:18:13;13.90;99.90
13123;DHT22;6627;50.920;12.050;2022-09-09T22:20:44;13.80;99.90
13123;DHT22;6627;50.920;12.050;2022-09-09T22:23:14;13.80;99.90
13123;DHT22;6627;50.920;12.050;2022-09-09T22:25:42;13.90;99.90
13123;DHT22;6627;50.920;12.050;2022-09-09T22:28:10;14.00;99.90
13123;DHT22;6627;50.920;12.050;2022-09-09T22:30:39;14.00;99.90
13123;DHT22;6627;50.920;12.050;2022-09-09T22:33:07;13.90;99.90
13123;DHT22;6627;50.920;12.050;2022-09-09T22:35:38;13.80;99.90
13123;DHT22;6627;50.920;12.050;2022-09-09T22:38:08;13.70;99.90
13123;DHT22;6627;50.920;12.050;2022-09-09T22:40:36;13.90;99.90
13123;DHT22;6627;50.920;12.050;2022-09-09T22:43:04;13.90;99.90
13123;DHT22;6627;50.920;12.050;2022-09-09T22:45:33;13.80;99.90
13123;DHT22;6627;50.920;12.050;2022-09-09T22:48:02;13.80;99.90
13123;DHT22;6627;50.920;12.050;2022-09-09T22:50:32;13.70;99.90
13123;DHT22;6627;50.920;12.050;2022-09-09T22:53:00;13.80;99.90
13123;DHT22;6627;50.920;12.050;2022-09-09T22:55:28;13.70;99.90
13123;DHT22;6627;50.920;12.050;2022-09-09T22:57:58;13.90;99.90
13123;DHT22;6627;50.920;12.050;2022-09-09T23:00:27;13.80;99.90
13123;DHT22;6627;50.920;12.050;2022-09-09T23:02:56;13.90;99.90
13123;DHT22;6627;50.920;12.050;2022-09-09T23:05:26;13.70;99.90
13123;DHT22;6627;50.920;12.050;2022-09-09T23:07:55;13.60;99.90
13123;DHT22;6627;50.920;12.050;2022-09-09T23:10:23;13.50;99.90
13123;DHT22;6627;50.920;12.050;2022-09-09T23:12:50;13.40;99.90
13123;DHT22;6627;50.920;12.050;2022-09-09T23:15:18;13.50;99.90
13123;DHT22;6627;50.920;12.050;2022-09-09T23:17:45;13.50;99.90
13123;DHT22;6627;50.920;12.050;2022-09-09T23:20:15;13.50;99.90
13123;DHT22;6627;50.920;12.050;2022-09-09T23:22:58;13.70;99.90
13123;DHT22;6627;50.920;12.050;2022-09-09T23:25:41;13.40;99.90
13123;DHT22;6627;50.920;12.050;2022-09-09T23:28:11;13.40;99.90
13123;DHT22;6627;50.920;12.050;2022-09-09T23:30:40;13.10;99.90
13123;DHT22;6627;50.920;12.050;2022-09-09T23:33:10;13.10;99.90
13123;DHT22;6627;50.920;12.050;2022-09-09T23:35:44;13.10;99.90
13123;DHT22;6627;50.920;12.050;2022-09-09T23:38:13;13.20;99.90
13123;DHT22;6627;50.920;12.050;2022-09-09T23:40:42;13.40;99.90
13123;DHT22;6627;50.920;12.050;2022-09-09T23:43:10;13.30;99.90
13123;DHT22;6627;50.920;12.050;2022-09-09T23:45:40;13.30;99.90
13123;DHT22;6627;50.920;12.050;2022-09-09T23:48:16;13.30;99.90
13123;DHT22;6627;50.920;12.050;2022-09-09T23:50:45;13.20;99.90
13123;DHT22;6627;50.920;12.050;2022-09-09T23:53:17;13.20;99.90
13123;DHT22;6627;50.920;12.050;2022-09-09T23:55:45;13.10;99.90
13123;DHT22;6627;50.920;12.050;2022-09-09T23:58:13;13.20;99.90
